Time;durP1;ratioP1;P1;durP2;ratioP2;P2;SDS_P1;SDS_P2;PMS_P1;PMS_P2;Temp;Humidity;BMP_temperature;BMP_pressure;BME280_temperature;BME280_humidity;BME280_pressure;Samples;Min_cycle;Max_cycle;Signal;HPM_P1;HPM_P2
2023/08/11 00:00:21;;;;;;;4.60;2.03;;;;;;;;;;5042954;28;20033;-84
2023/08/11 00:02:46;;;;;;;3.90;1.70;;;;;;;;;;5036138;28;20052;-85
2023/08/11 00:05:12;;;;;;;3.42;1.80;;;;;;;;;;5024773;28;20037;-85
2023/08/11 00:07:37;;;;;;;3.80;1.92;;;;;;;;;;5033010;28;20053;-84
2023/08/11 00:10:03;;;;;;;3.38;1.73;;;;;;;;;;5048054;28;20041;-84
2023/08/11 00:12:28;;;;;;;6.65;2.25;;;;;;;;;;5047608;28;20111;-84
2023/08/11 00:14:53;;;;;;;3.25;1.42;;;;;;;;;;5041999;28;20074;-84
2023/08/11 00:17:19;;;;;;;5.05;2.08;;;;;;;;;;5032982;28;20052;-84
2023/08/11 00:19:44;;;;;;;4.85;2.10;;;;;;;;;;5026210;28;20485;-84
2023/08/11 00:22:10;;;;;;;2.95;1.70;;;;;;;;;;5032755;28;20097;-84
2023/08/11 00:24:35;;;;;;;5.32;2.00;;;;;;;;;;5041926;28;20033;-84
2023/08/11 00:27:03;;;;;;;3.97;1.75;;;;;;;;;;5040169;28;20103;-84
2023/08/11 00:29:30;;;;;;;5.32;1.90;;;;;;;;;;5037588;28;20030;-83
2023/08/11 00:31:55;;;;;;;3.72;1.80;;;;;;;;;;5025859;28;20036;-84
2023/08/11 00:34:22;;;;;;;6.72;2.22;;;;;;;;;;5041854;28;20026;-84
2023/08/11 00:36:48;;;;;;;4.07;2.05;;;;;;;;;;5045166;28;20030;-85
2023/08/11 00:39:13;;;;;;;3.88;1.90;;;;;;;;;;5026145;28;20029;-85
2023/08/11 00:41:38;;;;;;;3.13;1.60;;;;;;;;;;5024278;28;20042;-84
2023/08/11 00:44:04;;;;;;;4.28;1.80;;;;;;;;;;5033936;28;20033;-84
2023/08/11 00:46:29;;;;;;;3.08;1.65;;;;;;;;;;5022377;28;20077;-83
2023/08/11 00:48:54;;;;;;;6.93;2.05;;;;;;;;;;5028862;28;20028;-84
2023/08/11 00:51:21;;;;;;;5.90;2.17;;;;;;;;;;5030258;28;20045;-84
2023/08/11 00:53:47;;;;;;;5.57;2.28;;;;;;;;;;5042773;28;20089;-84
2023/08/11 00:56:13;;;;;;;3.40;1.77;;;;;;;;;;5029801;28;20030;-84
2023/08/11 00:58:38;;;;;;;3.95;2.15;;;;;;;;;;5034420;28;20029;-84
2023/08/11 01:01:04;;;;;;;4.07;1.70;;;;;;;;;;5025882;28;20064;-83
2023/08/11 01:03:30;;;;;;;4.13;1.60;;;;;;;;;;5037434;28;20448;-83
2023/08/11 01:06:19;;;;;;;4.07;2.05;;;;;;;;;;5015145;28;20029;-84
2023/08/11 01:09:03;;;;;;;4.75;2.20;;;;;;;;;;5031657;28;20050;-84
2023/08/11 01:11:35;;;;;;;4.53;2.15;;;;;;;;;;5012581;28;20041;-84
2023/08/11 01:14:03;;;;;;;5.32;2.33;;;;;;;;;;5004161;28;20026;-83
2023/08/11 01:16:29;;;;;;;3.58;2.00;;;;;;;;;;5040627;28;20025;-82
2023/08/11 01:18:55;;;;;;;3.90;1.83;;;;;;;;;;5020908;28;20034;-83
2023/08/11 01:21:22;;;;;;;5.07;2.13;;;;;;;;;;5003397;28;20022;-83
2023/08/11 01:23:48;;;;;;;3.45;1.67;;;;;;;;;;5013665;28;20034;-83
2023/08/11 01:26:14;;;;;;;4.25;2.08;;;;;;;;;;5035947;28;20097;-83
2023/08/11 01:28:40;;;;;;;5.88;2.40;;;;;;;;;;5023713;28;20052;-82
2023/08/11 01:31:08;;;;;;;6.15;2.28;;;;;;;;;;5018394;28;20029;-83
2023/08/11 01:33:34;;;;;;;4.85;2.10;;;;;;;;;;5004950;28;20025;-83
2023/08/11 01:35:59;;;;;;;3.92;1.92;;;;;;;;;;5026949;28;20052;-83
2023/08/11 01:38:24;;;;;;;3.30;1.60;;;;;;;;;;5025971;28;20030;-83
2023/08/11 01:40:50;;;;;;;6.07;1.92;;;;;;;;;;5023720;28;20029;-83
2023/08/11 01:43:16;;;;;;;4.93;2.13;;;;;;;;;;5015354;28;20485;-83
2023/08/11 01:45:43;;;;;;;5.05;2.20;;;;;;;;;;5015195;28;20060;-83
2023/08/11 01:48:09;;;;;;;4.68;1.70;;;;;;;;;;5032118;28;20048;-83
2023/08/11 01:50:35;;;;;;;4.25;1.95;;;;;;;;;;5039866;28;20022;-83
2023/08/11 01:53:01;;;;;;;4.47;2.25;;;;;;;;;;5024014;28;20513;-83
2023/08/11 01:55:28;;;;;;;4.30;2.10;;;;;;;;;;5027052;28;20029;-83
2023/08/11 01:57:54;;;;;;;6.82;1.83;;;;;;;;;;5020131;28;20041;-83
2023/08/11 02:00:20;;;;;;;4.72;1.70;;;;;;;;;;5033355;28;20049;-83
2023/08/11 02:02:46;;;;;;;6.35;2.30;;;;;;;;;;5041083;28;20049;-83
2023/08/11 02:05:11;;;;;;;5.05;2.30;;;;;;;;;;5040396;28;20037;-83
2023/08/11 02:07:37;;;;;;;5.53;2.40;;;;;;;;;;5026560;28;20097;-83
2023/08/11 02:10:03;;;;;;;4.78;2.40;;;;;;;;;;5040385;28;20037;-84
2023/08/11 02:12:28;;;;;;;4.65;2.05;;;;;;;;;;5047110;28;20974;-84
2023/08/11 02:14:53;;;;;;;4.30;2.05;;;;;;;;;;5018335;28;20049;-83
2023/08/11 02:17:19;;;;;;;5.05;2.10;;;;;;;;;;5022889;28;20041;-84
2023/08/11 02:19:45;;;;;;;4.85;2.17;;;;;;;;;;5042927;28;20036;-83
2023/08/11 02:22:11;;;;;;;4.03;1.90;;;;;;;;;;5026978;28;20034;-83
2023/08/11 02:24:36;;;;;;;4.10;1.83;;;;;;;;;;5026377;28;20040;-83
2023/08/11 02:27:02;;;;;;;5.10;1.90;;;;;;;;;;5024197;28;20036;-83
2023/08/11 02:29:28;;;;;;;4.10;1.77;;;;;;;;;;5040078;28;20026;-83
2023/08/11 02:31:54;;;;;;;4.50;1.92;;;;;;;;;;5042934;28;20048;-83
2023/08/11 02:34:19;;;;;;;3.97;1.90;;;;;;;;;;5020786;28;20060;-83
2023/08/11 02:36:45;;;;;;;5.40;1.90;;;;;;;;;;5046283;28;20033;-83
2023/08/11 02:39:10;;;;;;;6.78;2.20;;;;;;;;;;5024479;28;20105;-84
2023/08/11 02:41:36;;;;;;;8.27;4.40;;;;;;;;;;5047266;28;20534;-83
2023/08/11 02:44:02;;;;;;;5.25;2.58;;;;;;;;;;5017919;28;20085;-83
2023/08/11 02:46:27;;;;;;;4.20;2.50;;;;;;;;;;5006718;28;20157;-84
2023/08/11 02:48:53;;;;;;;5.00;1.85;;;;;;;;;;5024166;28;20029;-84
2023/08/11 02:51:18;;;;;;;3.75;2.17;;;;;;;;;;5026130;28;20030;-84
2023/08/11 02:53:44;;;;;;;5.47;2.08;;;;;;;;;;5042158;28;20026;-83
2023/08/11 02:56:11;;;;;;;5.25;2.30;;;;;;;;;;5023654;28;20029;-84
2023/08/11 02:58:37;;;;;;;4.70;2.45;;;;;;;;;;5022880;28;20072;-82
2023/08/11 03:01:03;;;;;;;4.03;2.08;;;;;;;;;;5036982;28;20055;-82
2023/08/11 03:03:28;;;;;;;3.75;1.90;;;;;;;;;;5028658;28;20101;-82
2023/08/11 03:05:55;;;;;;;5.18;3.00;;;;;;;;;;5031627;28;20032;-82
2023/08/11 03:08:21;;;;;;;5.25;2.80;;;;;;;;;;5015446;28;20041;-82
2023/08/11 03:10:46;;;;;;;5.15;2.70;;;;;;;;;;5004491;28;20222;-82
2023/08/11 03:13:11;;;;;;;4.95;2.40;;;;;;;;;;5018379;28;20041;-82
2023/08/11 03:15:37;;;;;;;6.25;2.28;;;;;;;;;;5023384;28;20029;-83
2023/08/11 03:18:02;;;;;;;4.75;2.60;;;;;;;;;;5023441;28;20112;-82
2023/08/11 03:20:28;;;;;;;7.10;2.90;;;;;;;;;;5019236;28;20045;-83
2023/08/11 03:22:54;;;;;;;5.75;2.90;;;;;;;;;;5037167;28;20067;-82
2023/08/11 03:25:21;;;;;;;4.97;2.33;;;;;;;;;;5015581;28;20038;-82
2023/08/11 03:27:48;;;;;;;6.03;2.50;;;;;;;;;;5019833;28;20040;-84
2023/08/11 03:30:19;;;;;;;4.75;2.47;;;;;;;;;;5016182;28;20031;-83
2023/08/11 03:32:49;;;;;;;5.03;2.63;;;;;;;;;;5020022;28;20041;-83
2023/08/11 03:35:17;;;;;;;5.38;2.80;;;;;;;;;;5038433;28;20022;-83
2023/08/11 03:37:43;;;;;;;6.32;2.60;;;;;;;;;;5024376;28;20033;-84
2023/08/11 03:40:12;;;;;;;6.32;2.40;;;;;;;;;;5021775;28;20036;-83
2023/08/11 03:42:40;;;;;;;4.53;2.70;;;;;;;;;;5014552;28;20026;-83
2023/08/11 03:45:05;;;;;;;3.90;2.30;;;;;;;;;;5032534;28;20033;-83
2023/08/11 03:47:31;;;;;;;5.57;2.40;;;;;;;;;;5021481;28;20068;-84
2023/08/11 03:49:57;;;;;;;6.50;2.63;;;;;;;;;;5040068;28;20025;-83
2023/08/11 03:52:22;;;;;;;7.22;2.55;;;;;;;;;;5012045;28;20033;-83
2023/08/11 03:54:47;;;;;;;6.00;3.08;;;;;;;;;;5029943;28;20093;-83
2023/08/11 03:57:17;;;;;;;5.95;2.50;;;;;;;;;;5019295;28;20034;-84
2023/08/11 03:59:42;;;;;;;4.85;2.85;;;;;;;;;;5018673;28;20034;-83
2023/08/11 04:02:08;;;;;;;5.95;2.88;;;;;;;;;;5019254;28;20025;-83
2023/08/11 04:04:33;;;;;;;4.18;2.28;;;;;;;;;;5024674;28;20038;-83
2023/08/11 04:06:58;;;;;;;4.95;2.72;;;;;;;;;;5018546;28;20038;-83
2023/08/11 04:09:28;;;;;;;4.13;2.60;;;;;;;;;;5019475;28;20036;-83
2023/08/11 04:11:53;;;;;;;4.63;2.40;;;;;;;;;;5039378;28;20026;-83
2023/08/11 04:14:18;;;;;;;4.75;2.67;;;;;;;;;;5036762;28;20030;-83
2023/08/11 04:16:44;;;;;;;6.45;2.72;;;;;;;;;;5011613;28;20026;-83
2023/08/11 04:19:10;;;;;;;7.75;2.85;;;;;;;;;;5041885;28;20034;-83
2023/08/11 04:21:36;;;;;;;12.05;2.92;;;;;;;;;;5022188;28;20029;-82
2023/08/11 04:24:02;;;;;;;4.60;2.90;;;;;;;;;;5005673;28;20026;-81
2023/08/11 04:26:27;;;;;;;5.78;2.90;;;;;;;;;;5003602;28;20037;-81
2023/08/11 04:28:53;;;;;;;9.48;6.90;;;;;;;;;;5021173;28;20025;-81
2023/08/11 04:31:18;;;;;;;7.30;4.13;;;;;;;;;;5020271;28;20021;-81
2023/08/11 04:33:43;;;;;;;5.35;3.20;;;;;;;;;;5012981;28;20037;-82
2023/08/11 04:36:09;;;;;;;5.55;3.58;;;;;;;;;;5015899;28;20451;-81
2023/08/11 04:38:35;;;;;;;8.43;3.10;;;;;;;;;;5004225;28;20038;-81
2023/08/11 04:41:01;;;;;;;4.47;2.50;;;;;;;;;;4996143;28;20030;-81
2023/08/11 04:43:26;;;;;;;5.57;3.45;;;;;;;;;;5003319;28;20042;-82
2023/08/11 04:45:54;;;;;;;5.22;2.63;;;;;;;;;;4998029;28;20030;-82
2023/08/11 04:48:19;;;;;;;5.93;3.53;;;;;;;;;;5008399;28;20040;-81
2023/08/11 04:50:50;;;;;;;5.65;2.83;;;;;;;;;;5011201;28;20025;-81
2023/08/11 04:53:15;;;;;;;6.60;3.05;;;;;;;;;;5004700;28;20037;-81
2023/08/11 04:55:41;;;;;;;5.35;2.83;;;;;;;;;;5018631;28;20026;-82
2023/08/11 04:58:06;;;;;;;8.13;3.53;;;;;;;;;;5018164;28;20033;-83
2023/08/11 05:00:33;;;;;;;7.50;3.30;;;;;;;;;;5023245;28;20034;-83
2023/08/11 05:02:58;;;;;;;5.88;3.50;;;;;;;;;;5039659;28;20025;-83
2023/08/11 05:05:23;;;;;;;8.52;3.63;;;;;;;;;;5035956;28;20095;-83
2023/08/11 05:07:49;;;;;;;7.78;3.42;;;;;;;;;;5042562;28;20030;-83
2023/08/11 05:10:14;;;;;;;4.25;3.03;;;;;;;;;;5037056;28;20400;-83
2023/08/11 05:12:39;;;;;;;5.47;3.22;;;;;;;;;;5027828;28;20033;-83
2023/08/11 05:15:05;;;;;;;9.32;2.97;;;;;;;;;;5030222;28;20029;-82
2023/08/11 05:17:31;;;;;;;5.45;3.05;;;;;;;;;;5023631;28;20084;-83
2023/08/11 05:19:56;;;;;;;7.53;3.00;;;;;;;;;;5030872;28;20068;-83
2023/08/11 05:22:22;;;;;;;7.88;3.08;;;;;;;;;;5021102;28;20093;-82
2023/08/11 05:24:47;;;;;;;6.80;3.60;;;;;;;;;;5023302;28;20041;-82
2023/08/11 05:27:14;;;;;;;6.40;3.22;;;;;;;;;;5024743;28;20053;-82
2023/08/11 05:29:39;;;;;;;9.20;4.07;;;;;;;;;;5037511;28;20808;-83
2023/08/11 05:32:05;;;;;;;6.47;3.80;;;;;;;;;;5040631;28;20105;-83
2023/08/11 05:34:30;;;;;;;10.90;3.83;;;;;;;;;;5038674;28;20026;-82
2023/08/11 05:36:55;;;;;;;8.43;4.28;;;;;;;;;;5023991;28;20029;-83
2023/08/11 05:39:21;;;;;;;5.57;3.75;;;;;;;;;;5036196;28;20040;-83
2023/08/11 05:41:46;;;;;;;7.65;4.50;;;;;;;;;;5044572;28;20044;-82
2023/08/11 05:44:11;;;;;;;7.90;3.92;;;;;;;;;;5041769;28;20040;-83
2023/08/11 05:46:37;;;;;;;8.70;4.00;;;;;;;;;;5039549;28;20037;-83
2023/08/11 05:49:02;;;;;;;8.20;4.07;;;;;;;;;;5019088;28;20029;-83
2023/08/11 05:51:28;;;;;;;6.55;4.13;;;;;;;;;;5020456;28;20523;-83
2023/08/11 05:53:53;;;;;;;8.05;4.53;;;;;;;;;;5020345;28;20471;-83
2023/08/11 05:56:18;;;;;;;6.40;3.38;;;;;;;;;;5026453;28;20088;-82
2023/08/11 05:58:43;;;;;;;5.93;3.78;;;;;;;;;;5005295;28;20041;-82
2023/08/11 06:01:09;;;;;;;8.77;4.25;;;;;;;;;;5021960;28;20034;-83
2023/08/11 06:03:34;;;;;;;7.50;3.95;;;;;;;;;;5012948;28;20033;-83
2023/08/11 06:06:00;;;;;;;8.10;3.60;;;;;;;;;;5021260;28;20048;-82
2023/08/11 06:08:26;;;;;;;7.53;3.20;;;;;;;;;;5027035;28;20049;-82
2023/08/11 06:10:51;;;;;;;8.00;4.00;;;;;;;;;;5035901;28;20033;-82
2023/08/11 06:13:16;;;;;;;8.38;3.78;;;;;;;;;;5036232;28;20033;-83
2023/08/11 06:15:41;;;;;;;6.65;3.88;;;;;;;;;;5036899;28;20143;-82
2023/08/11 06:18:07;;;;;;;11.48;4.28;;;;;;;;;;5037798;28;20056;-82
2023/08/11 06:20:33;;;;;;;6.43;3.40;;;;;;;;;;5037162;28;20033;-83
2023/08/11 06:22:58;;;;;;;7.47;2.90;;;;;;;;;;5023835;28;20034;-82
2023/08/11 06:25:24;;;;;;;7.43;3.42;;;;;;;;;;5019874;28;20053;-83
2023/08/11 06:27:50;;;;;;;8.07;3.45;;;;;;;;;;5027235;28;20032;-82
2023/08/11 06:30:15;;;;;;;7.10;2.80;;;;;;;;;;5035629;28;20080;-84
2023/08/11 06:32:42;;;;;;;6.18;3.08;;;;;;;;;;5035821;28;20033;-83
2023/08/11 06:35:08;;;;;;;6.00;3.00;;;;;;;;;;5042020;28;20041;-83
2023/08/11 06:37:33;;;;;;;5.32;2.67;;;;;;;;;;5041410;28;20064;-83
2023/08/11 06:39:58;;;;;;;7.63;3.10;;;;;;;;;;5041424;28;20055;-83
2023/08/11 06:42:24;;;;;;;7.50;3.10;;;;;;;;;;5026720;28;20057;-83
2023/08/11 06:45:05;;;;;;;6.05;2.58;;;;;;;;;;5026104;28;20419;-83
2023/08/11 06:47:31;;;;;;;5.93;2.90;;;;;;;;;;5035537;28;20071;-83
2023/08/11 06:49:56;;;;;;;5.80;2.33;;;;;;;;;;5036947;28;20404;-83
2023/08/11 06:52:22;;;;;;;4.82;2.45;;;;;;;;;;5035471;28;20028;-83
2023/08/11 06:54:47;;;;;;;5.93;2.05;;;;;;;;;;5036858;28;20049;-83
2023/08/11 06:57:13;;;;;;;4.10;2.20;;;;;;;;;;5034748;28;20413;-82
2023/08/11 06:59:38;;;;;;;6.28;2.13;;;;;;;;;;5039257;28;20296;-83
2023/08/11 07:02:03;;;;;;;5.60;2.35;;;;;;;;;;5034506;28;20505;-81
2023/08/11 07:04:28;;;;;;;5.05;3.08;;;;;;;;;;5037654;28;20038;-81
2023/08/11 07:06:55;;;;;;;6.85;2.65;;;;;;;;;;5038347;28;20404;-82
2023/08/11 07:09:20;;;;;;;4.60;2.20;;;;;;;;;;5013841;28;20550;-81
2023/08/11 07:11:45;;;;;;;4.72;1.75;;;;;;;;;;5037135;28;20026;-81
2023/08/11 07:14:10;;;;;;;7.07;3.23;;;;;;;;;;5036741;28;20527;-82
2023/08/11 07:16:35;;;;;;;6.07;2.10;;;;;;;;;;5032094;28;20277;-81
2023/08/11 07:19:01;;;;;;;4.32;2.17;;;;;;;;;;5032223;28;20041;-81
2023/08/11 07:21:26;;;;;;;4.57;2.37;;;;;;;;;;5034692;28;20021;-81
2023/08/11 07:23:51;;;;;;;10.13;2.73;;;;;;;;;;5030440;28;20291;-82
2023/08/11 07:26:17;;;;;;;5.22;2.10;;;;;;;;;;5026391;28;20770;-81
2023/08/11 07:28:43;;;;;;;8.23;2.63;;;;;;;;;;5014242;28;20029;-82
2023/08/11 07:31:08;;;;;;;8.43;2.42;;;;;;;;;;5001641;28;20072;-81
2023/08/11 07:33:33;;;;;;;3.85;1.85;;;;;;;;;;5035363;28;20057;-81
2023/08/11 07:35:59;;;;;;;7.88;2.17;;;;;;;;;;5020902;28;20026;-81
2023/08/11 07:38:24;;;;;;;4.95;2.33;;;;;;;;;;5031713;28;20037;-82
2023/08/11 07:40:49;;;;;;;6.70;2.40;;;;;;;;;;5014017;28;20036;-81
2023/08/11 07:43:14;;;;;;;5.03;2.80;;;;;;;;;;5042990;28;20033;-82
2023/08/11 07:45:40;;;;;;;7.90;2.60;;;;;;;;;;5014551;28;20065;-82
2023/08/11 07:48:05;;;;;;;7.13;2.35;;;;;;;;;;5020457;28;20091;-81
2023/08/11 07:50:30;;;;;;;3.95;2.10;;;;;;;;;;5034305;28;20030;-82
2023/08/11 07:52:55;;;;;;;5.03;2.23;;;;;;;;;;5021857;28;20025;-82
2023/08/11 07:55:21;;;;;;;4.83;1.90;;;;;;;;;;5033976;28;20793;-82
2023/08/11 07:57:46;;;;;;;6.32;2.40;;;;;;;;;;5007163;28;20280;-81
2023/08/11 08:00:16;;;;;;;3.50;2.00;;;;;;;;;;5018874;28;20041;-82
2023/08/11 08:02:44;;;;;;;11.55;3.03;;;;;;;;;;5034813;28;20284;-81
2023/08/11 08:05:10;;;;;;;5.03;1.80;;;;;;;;;;5038947;28;20096;-82
2023/08/11 08:07:35;;;;;;;5.90;2.15;;;;;;;;;;5038005;28;20029;-82
2023/08/11 08:10:01;;;;;;;6.72;2.17;;;;;;;;;;5016034;28;20108;-82
2023/08/11 08:12:26;;;;;;;3.77;1.93;;;;;;;;;;5033319;28;20025;-81
2023/08/11 08:14:51;;;;;;;5.07;1.60;;;;;;;;;;5026172;28;20331;-81
2023/08/11 08:17:16;;;;;;;3.43;1.60;;;;;;;;;;5037755;28;20041;-82
2023/08/11 08:19:41;;;;;;;6.00;1.63;;;;;;;;;;5021065;28;20280;-81
2023/08/11 08:22:07;;;;;;;5.95;1.95;;;;;;;;;;5021312;28;20284;-81
2023/08/11 08:24:32;;;;;;;7.07;1.83;;;;;;;;;;5037705;28;20033;-81
2023/08/11 08:26:57;;;;;;;4.07;1.80;;;;;;;;;;5010299;28;20087;-82
2023/08/11 08:29:23;;;;;;;5.05;1.60;;;;;;;;;;5015593;28;20382;-82
2023/08/11 08:31:49;;;;;;;6.43;1.90;;;;;;;;;;5033872;28;20022;-81
2023/08/11 08:34:14;;;;;;;4.18;1.30;;;;;;;;;;5036504;28;20033;-81
2023/08/11 08:36:39;;;;;;;2.47;1.33;;;;;;;;;;5026788;28;20034;-82
2023/08/11 08:39:04;;;;;;;3.47;1.15;;;;;;;;;;5021004;28;20844;-81
2023/08/11 08:41:31;;;;;;;4.68;1.00;;;;;;;;;;5038673;28;20033;-82
2023/08/11 08:43:56;;;;;;;4.57;1.00;;;;;;;;;;5026857;28;20029;-82
2023/08/11 08:46:24;;;;;;;3.17;1.10;;;;;;;;;;5024113;28;20038;-82
2023/08/11 08:48:56;;;;;;;4.00;1.05;;;;;;;;;;5025918;28;20037;-83
2023/08/11 08:51:22;;;;;;;2.17;0.90;;;;;;;;;;5014032;28;20025;-82
2023/08/11 08:53:47;;;;;;;2.70;0.75;;;;;;;;;;5018741;28;20033;-82
2023/08/11 08:56:13;;;;;;;1.80;0.60;;;;;;;;;;5035858;28;20112;-82
2023/08/11 08:58:38;;;;;;;1.27;0.50;;;;;;;;;;5020329;28;20036;-82
2023/08/11 09:01:03;;;;;;;1.85;0.63;;;;;;;;;;5024438;28;20041;-81
2023/08/11 09:03:33;;;;;;;4.60;1.38;;;;;;;;;;5037082;28;20040;-82
2023/08/11 09:05:58;;;;;;;2.20;0.73;;;;;;;;;;5025330;28;20109;-82
2023/08/11 09:08:23;;;;;;;2.17;0.60;;;;;;;;;;5023574;28;20042;-82
2023/08/11 09:10:49;;;;;;;1.63;0.77;;;;;;;;;;5039954;28;20025;-82
2023/08/11 09:13:17;;;;;;;2.17;0.85;;;;;;;;;;5017591;28;20268;-82
2023/08/11 09:15:43;;;;;;;0.90;0.50;;;;;;;;;;5027400;28;20033;-82
2023/08/11 09:18:08;;;;;;;2.13;0.85;;;;;;;;;;5018161;28;20041;-81
2023/08/11 09:20:36;;;;;;;1.63;0.70;;;;;;;;;;5038314;28;20435;-82
2023/08/11 09:23:04;;;;;;;1.23;0.57;;;;;;;;;;5036767;28;20026;-82
2023/08/11 09:25:29;;;;;;;2.28;0.63;;;;;;;;;;5039711;28;20037;-82
2023/08/11 09:27:57;;;;;;;1.80;0.60;;;;;;;;;;5026287;28;20407;-81
2023/08/11 09:30:22;;;;;;;1.95;0.75;;;;;;;;;;5030481;28;20280;-81
2023/08/11 09:32:50;;;;;;;2.47;0.90;;;;;;;;;;5033489;28;20229;-82
2023/08/11 09:35:21;;;;;;;2.08;0.63;;;;;;;;;;5020029;28;20092;-81
2023/08/11 09:37:46;;;;;;;3.20;0.67;;;;;;;;;;5024936;28;20033;-81
2023/08/11 09:40:11;;;;;;;3.93;1.00;;;;;;;;;;5030913;28;20063;-81
2023/08/11 09:42:38;;;;;;;1.90;0.70;;;;;;;;;;5027472;28;20284;-82
2023/08/11 09:45:04;;;;;;;2.42;0.52;;;;;;;;;;5033521;28;20272;-82
2023/08/11 09:47:29;;;;;;;1.83;0.80;;;;;;;;;;5032472;28;20072;-82
2023/08/11 09:49:54;;;;;;;3.37;0.80;;;;;;;;;;5034140;28;20052;-82
2023/08/11 09:52:19;;;;;;;2.38;0.90;;;;;;;;;;5024209;28;20292;-82
2023/08/11 09:54:47;;;;;;;2.22;1.00;;;;;;;;;;5024113;28;20079;-82
2023/08/11 09:57:13;;;;;;;2.42;0.73;;;;;;;;;;5018222;28;20033;-82
2023/08/11 09:59:38;;;;;;;3.08;0.90;;;;;;;;;;5019460;28;20099;-82
2023/08/11 10:02:04;;;;;;;3.55;1.00;;;;;;;;;;5035305;28;20037;-82
2023/08/11 10:04:41;;;;;;;2.78;0.70;;;;;;;;;;5008708;28;20033;-83
2023/08/11 10:07:10;;;;;;;3.25;0.88;;;;;;;;;;5026388;28;20045;-83
2023/08/11 10:09:35;;;;;;;1.98;0.63;;;;;;;;;;5037359;28;20056;-83
2023/08/11 10:12:01;;;;;;;1.58;0.63;;;;;;;;;;5041411;28;20049;-83
2023/08/11 10:14:27;;;;;;;2.10;0.65;;;;;;;;;;5041783;28;20049;-83
2023/08/11 10:16:53;;;;;;;4.40;0.80;;;;;;;;;;5030744;28;20061;-82
2023/08/11 10:19:19;;;;;;;2.63;0.60;;;;;;;;;;5042595;28;20046;-83
2023/08/11 10:21:44;;;;;;;2.85;0.70;;;;;;;;;;5031175;28;20033;-83
2023/08/11 10:24:10;;;;;;;2.78;1.10;;;;;;;;;;5030256;28;20024;-82
2023/08/11 10:26:35;;;;;;;1.52;0.70;;;;;;;;;;5018671;28;20060;-83
2023/08/11 10:29:00;;;;;;;2.88;0.77;;;;;;;;;;5028847;28;20072;-82
2023/08/11 10:31:31;;;;;;;2.97;0.75;;;;;;;;;;5044272;28;20085;-82
2023/08/11 10:33:58;;;;;;;2.35;0.95;;;;;;;;;;5022756;28;20021;-83
2023/08/11 10:36:24;;;;;;;2.70;0.57;;;;;;;;;;5033393;28;20037;-84
2023/08/11 10:39:00;;;;;;;3.42;0.70;;;;;;;;;;5032407;28;20056;-83
2023/08/11 10:41:26;;;;;;;2.13;0.68;;;;;;;;;;5024936;28;20030;-83
2023/08/11 10:43:51;;;;;;;2.88;0.70;;;;;;;;;;5032751;28;20280;-82
2023/08/11 10:46:21;;;;;;;2.55;1.15;;;;;;;;;;5028339;28;20101;-83
2023/08/11 10:48:47;;;;;;;2.65;0.73;;;;;;;;;;5017573;28;20028;-83
2023/08/11 10:51:25;;;;;;;3.17;0.82;;;;;;;;;;5033271;28;20026;-83
2023/08/11 10:53:50;;;;;;;2.20;0.60;;;;;;;;;;5041400;28;20022;-82
2023/08/11 10:56:25;;;;;;;1.80;0.65;;;;;;;;;;5043835;28;20036;-82
2023/08/11 10:58:51;;;;;;;4.93;0.70;;;;;;;;;;5040637;28;20093;-83
2023/08/11 11:01:16;;;;;;;1.77;0.57;;;;;;;;;;5025921;28;20061;-78
2023/08/11 11:03:41;;;;;;;2.78;0.80;;;;;;;;;;5025929;28;20351;-79
2023/08/11 11:06:06;;;;;;;2.23;0.67;;;;;;;;;;5023441;28;20030;-78
2023/08/11 11:08:32;;;;;;;1.60;0.70;;;;;;;;;;5025434;28;20296;-78
2023/08/11 11:10:57;;;;;;;1.87;0.90;;;;;;;;;;5024685;28;20277;-78
2023/08/11 11:13:22;;;;;;;2.75;0.70;;;;;;;;;;5007914;28;20264;-78
2023/08/11 11:15:47;;;;;;;1.77;0.80;;;;;;;;;;5024062;28;20037;-79
2023/08/11 11:18:12;;;;;;;2.13;0.80;;;;;;;;;;5025670;28;20044;-78
2023/08/11 11:20:38;;;;;;;6.22;0.90;;;;;;;;;;5025672;28;20026;-79
2023/08/11 11:23:03;;;;;;;2.17;0.70;;;;;;;;;;5012638;28;20033;-78
2023/08/11 11:25:29;;;;;;;1.40;0.52;;;;;;;;;;5013804;28;20045;-78
2023/08/11 11:27:55;;;;;;;3.15;0.80;;;;;;;;;;5026537;28;20025;-78
2023/08/11 11:30:21;;;;;;;3.67;0.80;;;;;;;;;;5026177;28;20052;-78
2023/08/11 11:32:48;;;;;;;1.77;0.60;;;;;;;;;;5024272;28;20034;-78
2023/08/11 11:35:14;;;;;;;2.60;0.68;;;;;;;;;;5026316;28;20370;-79
2023/08/11 11:37:40;;;;;;;2.03;0.52;;;;;;;;;;5023888;28;20040;-79
2023/08/11 11:40:07;;;;;;;1.77;0.77;;;;;;;;;;5006549;28;20034;-78
2023/08/11 11:42:36;;;;;;;1.77;0.50;;;;;;;;;;5005685;28;20139;-79
2023/08/11 11:45:01;;;;;;;2.90;1.20;;;;;;;;;;5026717;28;20387;-79
2023/08/11 11:47:27;;;;;;;1.65;0.70;;;;;;;;;;5013635;28;20040;-79
2023/08/11 11:49:53;;;;;;;1.23;0.45;;;;;;;;;;5015024;28;20682;-79
2023/08/11 11:52:18;;;;;;;2.85;0.70;;;;;;;;;;5020138;28;20033;-79
2023/08/11 11:54:43;;;;;;;2.30;0.70;;;;;;;;;;5014280;28;20021;-79
2023/08/11 11:57:09;;;;;;;2.90;0.90;;;;;;;;;;5029950;28;20288;-79
2023/08/11 11:59:34;;;;;;;1.30;0.50;;;;;;;;;;5027515;28;20025;-78
2023/08/11 12:02:00;;;;;;;2.92;0.93;;;;;;;;;;5026971;28;20642;-79
2023/08/11 12:04:26;;;;;;;2.67;0.77;;;;;;;;;;5008286;28;20037;-78
2023/08/11 12:06:51;;;;;;;1.77;0.85;;;;;;;;;;5025231;28;20033;-79
2023/08/11 12:09:16;;;;;;;2.27;0.63;;;;;;;;;;5005628;28;20030;-78
2023/08/11 12:11:41;;;;;;;2.47;0.70;;;;;;;;;;5024419;28;20268;-79
2023/08/11 12:14:07;;;;;;;1.77;0.60;;;;;;;;;;5021392;28;20029;-79
2023/08/11 12:16:34;;;;;;;1.70;0.60;;;;;;;;;;5026430;28;20029;-79
2023/08/11 12:19:03;;;;;;;1.88;0.70;;;;;;;;;;5024887;28;20033;-79
2023/08/11 12:21:28;;;;;;;2.70;0.63;;;;;;;;;;5027780;28;20041;-79
2023/08/11 12:23:53;;;;;;;1.38;0.60;;;;;;;;;;5022899;28;20397;-79
2023/08/11 12:26:19;;;;;;;2.27;0.53;;;;;;;;;;5023899;28;20531;-79
2023/08/11 12:28:44;;;;;;;1.42;0.60;;;;;;;;;;5013530;28;20659;-79
2023/08/11 12:31:09;;;;;;;0.80;0.50;;;;;;;;;;5026564;28;20119;-79
2023/08/11 12:33:34;;;;;;;2.30;0.90;;;;;;;;;;5026245;28;20268;-80
2023/08/11 12:35:59;;;;;;;3.70;0.80;;;;;;;;;;5028763;28;20075;-79
2023/08/11 12:38:25;;;;;;;4.43;0.70;;;;;;;;;;5043642;28;20029;-79
2023/08/11 12:40:50;;;;;;;2.87;0.90;;;;;;;;;;5023392;28;20042;-79
2023/08/11 12:43:15;;;;;;;1.63;0.60;;;;;;;;;;5041569;28;20271;-79
2023/08/11 12:45:41;;;;;;;2.50;0.70;;;;;;;;;;5020615;28;20040;-79
2023/08/11 12:48:07;;;;;;;2.70;0.60;;;;;;;;;;5038067;28;20053;-79
2023/08/11 12:50:33;;;;;;;1.98;0.70;;;;;;;;;;5029475;28;20038;-79
2023/08/11 12:52:59;;;;;;;1.90;0.70;;;;;;;;;;5028510;28;20060;-79
2023/08/11 12:55:25;;;;;;;2.65;0.60;;;;;;;;;;5021563;28;20029;-79
2023/08/11 12:57:50;;;;;;;1.40;0.60;;;;;;;;;;5035238;28;20045;-79
2023/08/11 13:00:16;;;;;;;2.33;1.30;;;;;;;;;;5038704;28;20034;-79
2023/08/11 13:02:42;;;;;;;3.90;0.95;;;;;;;;;;5039876;28;20044;-79
2023/08/11 13:05:07;;;;;;;2.70;0.82;;;;;;;;;;5034426;28;20025;-79
2023/08/11 13:07:32;;;;;;;2.78;0.70;;;;;;;;;;5036667;28;20038;-79
2023/08/11 13:09:57;;;;;;;2.00;0.70;;;;;;;;;;5037051;28;20060;-79
2023/08/11 13:12:23;;;;;;;2.43;0.73;;;;;;;;;;5036692;28;20030;-79
2023/08/11 13:14:48;;;;;;;5.77;0.67;;;;;;;;;;5037663;28;20032;-79
2023/08/11 13:17:13;;;;;;;3.53;1.13;;;;;;;;;;5020939;28;20030;-79
2023/08/11 13:19:39;;;;;;;2.07;0.67;;;;;;;;;;5034930;28;20040;-79
2023/08/11 13:22:04;;;;;;;1.25;0.50;;;;;;;;;;5036902;28;20531;-79
2023/08/11 13:24:33;;;;;;;1.90;0.85;;;;;;;;;;5038769;28;20036;-79
2023/08/11 13:26:59;;;;;;;2.90;0.93;;;;;;;;;;5027766;28;20030;-79
2023/08/11 13:29:24;;;;;;;3.25;1.20;;;;;;;;;;5022821;28;20089;-78
2023/08/11 13:31:49;;;;;;;3.20;1.00;;;;;;;;;;5039111;28;20042;-79
2023/08/11 13:34:14;;;;;;;1.83;0.63;;;;;;;;;;5043162;28;20272;-79
2023/08/11 13:36:40;;;;;;;1.83;0.87;;;;;;;;;;5043641;28;20049;-79
2023/08/11 13:39:05;;;;;;;2.37;1.00;;;;;;;;;;5038943;28;20030;-79
2023/08/11 13:41:30;;;;;;;2.83;1.15;;;;;;;;;;5029869;28;20280;-79
2023/08/11 13:43:55;;;;;;;2.67;0.70;;;;;;;;;;5042273;28;20048;-79
2023/08/11 13:46:21;;;;;;;3.50;1.00;;;;;;;;;;5046395;28;20025;-79
2023/08/11 13:48:46;;;;;;;2.17;0.77;;;;;;;;;;5041049;28;20026;-79
2023/08/11 13:51:11;;;;;;;3.67;0.83;;;;;;;;;;5046368;28;20030;-79
2023/08/11 13:53:36;;;;;;;1.67;0.60;;;;;;;;;;5038635;28;20026;-79
2023/08/11 13:56:01;;;;;;;2.13;1.10;;;;;;;;;;5042027;28;20021;-79
2023/08/11 13:58:27;;;;;;;2.85;0.80;;;;;;;;;;5024316;28;20128;-79
2023/08/11 14:00:52;;;;;;;2.73;1.00;;;;;;;;;;5041428;28;20056;-79
2023/08/11 14:03:17;;;;;;;1.37;0.63;;;;;;;;;;5041101;28;20041;-79
2023/08/11 14:05:42;;;;;;;2.27;0.80;;;;;;;;;;5039058;28;20356;-79
2023/08/11 14:08:07;;;;;;;1.57;0.87;;;;;;;;;;5029852;28;20480;-79
2023/08/11 14:10:33;;;;;;;2.20;0.60;;;;;;;;;;5016695;28;20036;-79
2023/08/11 14:12:58;;;;;;;1.53;0.70;;;;;;;;;;5023160;28;20260;-79
2023/08/11 14:15:23;;;;;;;4.27;1.10;;;;;;;;;;5025801;28;20279;-79
2023/08/11 14:17:49;;;;;;;1.88;0.70;;;;;;;;;;5002656;28;20272;-79
2023/08/11 14:20:14;;;;;;;3.93;1.00;;;;;;;;;;5037138;28;20457;-79
2023/08/11 14:22:39;;;;;;;1.40;0.80;;;;;;;;;;5031417;28;20037;-79
2023/08/11 14:25:04;;;;;;;1.80;0.70;;;;;;;;;;5037655;28;20280;-79
2023/08/11 14:27:30;;;;;;;2.97;0.93;;;;;;;;;;5036289;28;20120;-79
2023/08/11 14:29:55;;;;;;;1.07;0.77;;;;;;;;;;5021905;28;20026;-79
2023/08/11 14:32:20;;;;;;;2.70;1.00;;;;;;;;;;5036208;28;20040;-79
2023/08/11 14:34:45;;;;;;;1.60;0.70;;;;;;;;;;5035853;28;20056;-79